New Carlisle, IN (46552)

11:41 AM EDT on July 26, 2016 (GMT -0400)
KTV's Greenhouse and Simplyfast Racing | | Change Station

Elev 735 ft 41.71 °N, 86.44 °W | Updated 2 seconds ago

Clear
Clear
80.7 °F
Feels Like 85 °F
N
0.0
Wind Variable Wind from NNW
Gusts 0.0 mph

Today
High -- | Low -- °F
--% Chance of Precip.
Yesterday
High -- | Low -- °F
Precip. -- in
Pressure 30.07 in
Visibility 10.0 miles
Clouds Clear
Heat Index 85 °F
Dew Point 72 °F
Humidity 74%
Rainfall 0.00 in
Snow Depth Not available.
6:34 AM 9:09 PM
Waning Gibbous, 53% visible
METAR KSBN 261454Z 00000KT 10SM CLR 27/17 A3008 RMK AO2 SLP181 T02670172 55001
Pressure 30.07 in
Visibility 10.0 miles
Clouds Clear
Heat Index 85 °F
Dew Point 72 °F
Humidity 74%
Rainfall 0.00 in
Snow Depth Not available.
6:34 AM 9:09 PM
Waning Gibbous, 53% visible
METAR KSBN 261454Z 00000KT 10SM CLR 27/17 A3008 RMK AO2 SLP181 T02670172 55001

10-Day Weather Forecast

Almanac

Astronomy

Jul. 26, 2016 Rise Set
Actual Time
Civil Twilight
Nautical Twilight
Astronomical Twilight
Moon
Length of Visible Light
Length of Day
Tomorrow will be .
, % of the Moon is Illuminated

Today's Extremes

State Highs State Lows

Community

WunderPhotos

Upload Photos

1,927,617 photos uploaded!

WunderBlog® & News

Nearby

Air Quality

  Air Quality AQ Index Pollutant
Not available.

Snow Depth

Station Depth Elevation

Earthquake Activity

City Distance Mag. Time & Date
Minimum magnitude displayed is 2.5.

Coastal Water Temperatures

Place Temperature

Stations

Nearby Weather Stations

Station Location Temp. Windchill Dew Point Humidity Wind Precip. Elev Updated Type
                   

Watches & Warnings

There are currently no watches in effect.